Time;durP1;ratioP1;P1;durP2;ratioP2;P2;SDS_P1;SDS_P2;PMS_P1;PMS_P2;Temp;Humidity;BMP_temperature;BMP_pressure;BME280_temperature;BME280_humidity;BME280_pressure;Samples;Min_cycle;Max_cycle;Signal;HPM_P1;HPM_P2
2023/05/31 00:02:19;;;;;;;3.28;1.40;;;13.70;77.50;;;;;;5018034;28;20041;-66
2023/05/31 00:04:45;;;;;;;1.63;1.10;;;13.60;77.80;;;;;;5017880;28;20033;-66
2023/05/31 00:07:11;;;;;;;5.03;1.73;;;13.60;78.00;;;;;;5019069;28;20033;-65
2023/05/31 00:09:36;;;;;;;3.65;1.70;;;13.60;78.40;;;;;;5023053;28;20097;-65
2023/05/31 00:12:02;;;;;;;3.70;1.75;;;13.50;78.70;;;;;;5020703;28;20049;-65
2023/05/31 00:14:28;;;;;;;9.63;1.30;;;13.50;79.00;;;;;;5019760;28;20021;-65
2023/05/31 00:16:55;;;;;;;2.15;1.20;;;13.50;79.20;;;;;;5017190;28;20028;-65
2023/05/31 00:19:20;;;;;;;1.77;1.30;;;13.40;79.30;;;;;;4994887;28;20029;-66
2023/05/31 00:21:46;;;;;;;3.80;1.40;;;13.40;79.50;;;;;;5022859;28;20033;-66
2023/05/31 00:24:12;;;;;;;5.40;1.45;;;13.40;79.90;;;;;;5020315;28;20032;-66
2023/05/31 00:26:38;;;;;;;3.00;1.30;;;13.30;80.20;;;;;;5019915;28;20033;-66
2023/05/31 00:29:04;;;;;;;4.00;1.30;;;13.30;80.60;;;;;;5015437;28;20098;-66
2023/05/31 00:31:30;;;;;;;2.60;1.23;;;13.30;80.60;;;;;;5016777;28;20091;-65
2023/05/31 00:33:57;;;;;;;6.35;1.20;;;13.20;80.60;;;;;;5019852;28;20516;-65
2023/05/31 00:36:23;;;;;;;5.38;1.40;;;13.20;80.40;;;;;;5021381;28;20041;-66
2023/05/31 00:38:49;;;;;;;1.73;1.25;;;13.10;80.50;;;;;;5020026;28;20108;-66
2023/05/31 00:41:15;;;;;;;3.33;1.42;;;13.10;80.80;;;;;;4997950;28;20613;-66
2023/05/31 00:43:41;;;;;;;7.05;1.35;;;13.10;81.10;;;;;;5016589;28;20084;-65
2023/05/31 00:46:14;;;;;;;1.90;1.27;;;13.00;81.00;;;;;;5016148;28;20429;-65
2023/05/31 00:48:42;;;;;;;4.30;1.90;;;13.00;80.80;;;;;;5018912;28;20112;-66
2023/05/31 00:51:08;;;;;;;3.67;1.33;;;13.00;80.80;;;;;;5020267;28;20033;-66
2023/05/31 00:53:34;;;;;;;4.53;1.40;;;12.90;80.90;;;;;;5015205;28;20495;-66
2023/05/31 00:56:00;;;;;;;5.80;1.30;;;12.90;81.20;;;;;;4996744;28;20861;-65
2023/05/31 00:58:27;;;;;;;3.88;1.40;;;12.80;81.30;;;;;;5014346;28;20060;-66
2023/05/31 01:00:55;;;;;;;2.42;1.23;;;12.80;81.50;;;;;;5022043;28;20039;-66
2023/05/31 01:03:20;;;;;;;4.07;1.65;;;12.70;81.70;;;;;;5000853;28;20108;-65
2023/05/31 01:05:46;;;;;;;2.53;1.40;;;12.70;82.00;;;;;;5018986;28;20453;-65
2023/05/31 01:08:16;;;;;;;6.60;2.22;;;12.60;82.10;;;;;;5017516;28;20894;-65
2023/05/31 01:10:43;;;;;;;3.85;1.33;;;12.50;82.50;;;;;;4998103;28;20033;-66
2023/05/31 01:13:32;;;;;;;3.20;1.23;;;12.50;82.60;;;;;;5003477;28;20116;-65
2023/05/31 01:16:06;;;;;;;3.38;1.40;;;12.40;82.90;;;;;;5001543;28;20132;-65
2023/05/31 01:18:49;;;;;;;2.90;1.27;;;12.40;83.20;;;;;;5000301;28;20036;-65
2023/05/31 01:21:19;;;;;;;4.28;1.60;;;12.30;83.20;;;;;;4996388;28;20761;-66
2023/05/31 01:24:10;;;;;;;4.78;1.75;;;12.40;83.60;;;;;;5004882;28;20033;-66
2023/05/31 01:26:40;;;;;;;2.80;1.50;;;12.30;83.80;;;;;;5005245;28;20083;-65
2023/05/31 01:29:26;;;;;;;1.90;1.35;;;12.20;84.00;;;;;;5018239;28;20025;-66
2023/05/31 01:31:52;;;;;;;;;;;12.20;84.50;;;;;;4998945;28;20040;-66
2023/05/31 01:34:18;;;;;;;3.53;1.42;;;12.10;84.80;;;;;;5014051;28;19918;-65
2023/05/31 01:36:44;;;;;;;3.25;1.48;;;12.10;85.10;;;;;;5015172;28;20024;-66
2023/05/31 01:39:11;;;;;;;3.47;2.17;;;12.10;85.40;;;;;;5002544;28;20065;-66
2023/05/31 01:41:40;;;;;;;2.92;1.55;;;12.10;85.60;;;;;;5019579;28;20029;-66
2023/05/31 01:44:07;;;;;;;2.47;1.65;;;12.00;86.00;;;;;;5016166;28;20112;-66
2023/05/31 01:46:34;;;;;;;4.10;1.67;;;12.00;86.10;;;;;;4995964;28;20137;-65
2023/05/31 01:49:01;;;;;;;3.55;1.40;;;12.00;86.40;;;;;;5014859;28;20450;-66
2023/05/31 01:51:30;;;;;;;0.90;0.90;;;11.90;86.70;;;;;;5002986;28;20115;-66
2023/05/31 01:53:57;;;;;;;4.55;1.60;;;11.90;86.90;;;;;;5000482;28;20029;-66
2023/05/31 01:56:25;;;;;;;2.22;1.38;;;11.90;87.10;;;;;;4998737;28;20034;-65
2023/05/31 01:58:54;;;;;;;4.25;1.40;;;11.80;87.30;;;;;;4997025;28;20562;-65
2023/05/31 02:01:20;;;;;;;4.88;1.70;;;11.80;87.60;;;;;;5012853;28;20026;-66
2023/05/31 02:03:50;;;;;;;2.42;1.35;;;11.70;87.90;;;;;;5021935;28;20120;-65
2023/05/31 02:06:17;;;;;;;3.30;1.55;;;11.70;88.40;;;;;;5002242;28;20484;-66
2023/05/31 02:08:42;;;;;;;3.35;1.70;;;11.70;88.40;;;;;;5017595;28;20087;-65
2023/05/31 02:11:09;;;;;;;5.32;1.75;;;11.60;88.70;;;;;;4995995;28;20494;-65
2023/05/31 02:13:35;;;;;;;2.10;1.33;;;11.60;88.90;;;;;;5018337;28;20718;-65
2023/05/31 02:16:03;;;;;;;4.05;1.63;;;11.60;89.30;;;;;;4999965;28;20026;-65
2023/05/31 02:18:30;;;;;;;2.42;1.38;;;11.50;89.70;;;;;;5017125;28;20044;-65
2023/05/31 02:20:56;;;;;;;4.32;1.85;;;11.50;90.00;;;;;;4999891;28;20026;-64
2023/05/31 02:23:23;;;;;;;2.70;1.88;;;11.50;90.20;;;;;;4996801;28;20393;-65
2023/05/31 02:25:49;;;;;;;4.70;1.58;;;11.40;90.30;;;;;;5014466;28;20025;-65
2023/05/31 02:28:16;;;;;;;5.43;1.45;;;11.40;90.50;;;;;;5014821;28;20036;-65
2023/05/31 02:30:52;;;;;;;3.95;1.38;;;11.40;90.60;;;;;;5020039;28;20128;-65
2023/05/31 02:33:18;;;;;;;3.75;1.60;;;11.40;90.80;;;;;;4999455;28;20049;-66
2023/05/31 02:35:44;;;;;;;2.08;1.20;;;11.30;91.00;;;;;;5017139;28;20033;-65
2023/05/31 02:38:09;;;;;;;3.10;1.50;;;11.30;91.10;;;;;;5011660;28;20037;-65
2023/05/31 02:40:35;;;;;;;4.90;1.30;;;11.30;91.30;;;;;;5013978;28;20029;-65
2023/05/31 02:43:02;;;;;;;3.38;1.25;;;11.30;91.40;;;;;;5017420;28;20660;-65
2023/05/31 02:45:28;;;;;;;3.60;1.40;;;11.20;91.40;;;;;;4999823;28;20045;-65
2023/05/31 02:47:54;;;;;;;1.85;1.30;;;11.20;91.60;;;;;;4998407;28;20030;-65
2023/05/31 02:50:21;;;;;;;4.55;1.58;;;11.20;91.70;;;;;;4999080;28;20030;-65
2023/05/31 02:52:54;;;;;;;3.33;1.60;;;11.20;91.90;;;;;;4997003;28;20033;-65
2023/05/31 02:55:33;;;;;;;3.40;1.70;;;11.20;92.00;;;;;;5005908;28;20044;-65
2023/05/31 02:58:19;;;;;;;5.00;1.52;;;11.20;92.10;;;;;;5005682;28;20092;-65
2023/05/31 03:01:05;;;;;;;2.65;1.50;;;11.10;92.30;;;;;;5017775;28;20115;-65
2023/05/31 03:03:34;;;;;;;3.17;1.63;;;11.10;92.30;;;;;;4998150;28;20032;-65
2023/05/31 03:06:06;;;;;;;1.88;1.30;;;11.10;92.40;;;;;;4999020;28;20692;-65
2023/05/31 03:08:32;;;;;;;2.95;1.25;;;11.10;92.50;;;;;;5004539;28;20025;-65
2023/05/31 03:10:58;;;;;;;4.97;1.60;;;11.00;92.70;;;;;;5021523;28;20545;-65
2023/05/31 03:13:24;;;;;;;4.72;1.50;;;11.00;92.80;;;;;;5000833;28;20076;-65
2023/05/31 03:15:49;;;;;;;3.42;1.40;;;11.00;92.90;;;;;;5005152;28;20430;-66
2023/05/31 03:18:15;;;;;;;2.40;1.58;;;11.00;93.10;;;;;;5013738;28;20052;-66
2023/05/31 03:20:43;;;;;;;3.58;1.52;;;11.00;93.30;;;;;;5023487;28;20469;-65
2023/05/31 03:23:09;;;;;;;3.70;1.45;;;11.00;93.40;;;;;;5001181;28;20033;-65
2023/05/31 03:25:35;;;;;;;4.35;1.52;;;10.90;93.50;;;;;;5006957;28;20029;-65
2023/05/31 03:28:02;;;;;;;2.60;1.38;;;10.90;93.60;;;;;;4998623;28;20620;-65
2023/05/31 03:30:29;;;;;;;3.35;1.30;;;10.90;93.60;;;;;;4983022;28;20037;-65
2023/05/31 03:32:58;;;;;;;2.28;1.58;;;10.90;93.70;;;;;;5002269;28;20041;-65
2023/05/31 03:35:24;;;;;;;5.07;1.35;;;10.90;93.80;;;;;;5005894;28;20026;-66
2023/05/31 03:37:51;;;;;;;3.72;1.27;;;10.90;93.90;;;;;;5019961;28;20528;-66
2023/05/31 03:40:17;;;;;;;3.47;1.40;;;10.90;93.90;;;;;;4999801;28;20026;-65
2023/05/31 03:42:43;;;;;;;3.38;1.65;;;10.90;94.00;;;;;;4999492;28;20036;-66
2023/05/31 03:45:09;;;;;;;3.10;1.35;;;10.80;94.10;;;;;;4999180;28;20021;-65
2023/05/31 03:47:35;;;;;;;1.85;1.50;;;10.90;94.10;;;;;;5005572;28;20045;-66
2023/05/31 03:50:03;;;;;;;3.97;1.65;;;10.80;94.10;;;;;;5001867;28;20030;-65
2023/05/31 03:52:29;;;;;;;2.40;1.20;;;10.80;94.20;;;;;;5000360;28;20132;-65
2023/05/31 03:54:55;;;;;;;2.08;1.42;;;10.80;94.30;;;;;;5016615;28;20025;-66
2023/05/31 03:57:21;;;;;;;2.85;1.35;;;10.90;94.60;;;;;;5000731;28;20072;-66
2023/05/31 03:59:47;;;;;;;1.80;1.27;;;10.80;94.70;;;;;;5022740;28;20025;-65
2023/05/31 04:02:12;;;;;;;1.48;1.30;;;10.80;94.80;;;;;;5001096;28;20032;-65
2023/05/31 04:04:38;;;;;;;2.70;1.60;;;10.80;95.00;;;;;;5019160;28;20029;-64
2023/05/31 04:07:04;;;;;;;3.10;1.50;;;10.80;94.90;;;;;;4997280;28;20323;-65
2023/05/31 04:09:30;;;;;;;3.92;1.42;;;10.80;95.00;;;;;;4998088;28;20029;-64
2023/05/31 04:11:57;;;;;;;2.20;1.33;;;10.80;95.20;;;;;;5022905;28;20037;-64
2023/05/31 04:14:23;;;;;;;3.17;1.40;;;10.80;95.30;;;;;;5002937;28;20030;-64
2023/05/31 04:16:49;;;;;;;5.07;1.60;;;10.80;95.30;;;;;;5014024;28;20029;-65
2023/05/31 04:19:15;;;;;;;5.60;1.58;;;10.90;95.40;;;;;;4997815;28;20041;-64
2023/05/31 04:21:41;;;;;;;3.13;1.52;;;10.90;95.60;;;;;;4999012;28;20783;-65
2023/05/31 04:24:08;;;;;;;2.08;1.20;;;10.90;95.60;;;;;;5002308;28;20481;-64
2023/05/31 04:26:34;;;;;;;2.85;1.48;;;10.90;95.60;;;;;;5001248;28;20033;-64
2023/05/31 04:29:02;;;;;;;3.20;1.50;;;11.00;95.70;;;;;;5001209;28;20124;-64
2023/05/31 04:31:29;;;;;;;4.05;1.40;;;11.00;95.80;;;;;;5000381;28;20037;-64
2023/05/31 04:33:57;;;;;;;5.43;1.75;;;11.00;95.90;;;;;;5004615;28;20291;-64
2023/05/31 04:36:24;;;;;;;3.90;1.73;;;11.10;96.10;;;;;;5000956;28;20021;-64
2023/05/31 04:38:51;;;;;;;3.00;1.55;;;11.10;96.20;;;;;;5021494;28;20599;-64
2023/05/31 04:41:25;;;;;;;4.07;1.67;;;11.10;96.20;;;;;;5001019;28;20091;-64
2023/05/31 04:43:56;;;;;;;4.03;1.42;;;11.20;96.30;;;;;;5002168;28;20564;-64
2023/05/31 04:46:24;;;;;;;8.70;2.63;;;11.20;96.50;;;;;;4997911;28;20760;-65
2023/05/31 04:48:51;;;;;;;2.72;1.30;;;11.30;96.50;;;;;;4998352;28;20425;-64
2023/05/31 04:51:18;;;;;;;2.70;1.30;;;11.30;96.60;;;;;;5002985;28;20033;-64
2023/05/31 04:53:47;;;;;;;1.90;1.35;;;11.40;96.70;;;;;;5020491;28;20045;-64
2023/05/31 04:56:16;;;;;;;2.03;1.45;;;11.40;96.80;;;;;;4998819;28;20083;-64
2023/05/31 04:58:42;;;;;;;2.78;1.50;;;11.50;96.70;;;;;;5001734;28;20025;-65
2023/05/31 05:01:08;;;;;;;2.33;1.48;;;11.50;96.80;;;;;;5016471;28;20037;-64
2023/05/31 05:03:44;;;;;;;6.35;1.67;;;11.60;96.90;;;;;;5022866;28;20768;-64
2023/05/31 05:06:16;;;;;;;2.88;1.33;;;11.70;96.90;;;;;;5000942;28;20026;-64
2023/05/31 05:08:42;;;;;;;2.88;1.60;;;11.80;97.00;;;;;;5020043;28;20025;-65
2023/05/31 05:11:08;;;;;;;2.22;1.25;;;11.80;97.10;;;;;;4996347;28;20577;-64
2023/05/31 05:13:35;;;;;;;3.60;1.50;;;11.90;97.10;;;;;;5015262;28;20067;-64
2023/05/31 05:16:02;;;;;;;2.80;1.58;;;12.00;97.10;;;;;;5020136;28;20040;-64
2023/05/31 05:18:31;;;;;;;3.08;1.63;;;12.10;97.10;;;;;;5000753;28;20034;-64
2023/05/31 05:20:58;;;;;;;2.28;1.50;;;12.30;96.60;;;;;;4999739;28;20021;-65
2023/05/31 05:23:26;;;;;;;5.28;1.90;;;12.60;96.40;;;;;;4997906;28;20029;-66
2023/05/31 05:25:54;;;;;;;6.25;1.83;;;12.90;96.00;;;;;;5000344;28;20029;-65
2023/05/31 05:28:22;;;;;;;4.57;1.73;;;13.20;95.00;;;;;;5003292;28;20029;-65
2023/05/31 05:30:50;;;;;;;3.72;1.60;;;13.30;93.60;;;;;;5022255;28;20030;-65
2023/05/31 05:33:16;;;;;;;6.00;2.17;;;13.40;93.40;;;;;;4998784;28;20030;-66
2023/05/31 05:35:42;;;;;;;3.85;1.67;;;13.50;93.50;;;;;;5019216;28;20086;-66
2023/05/31 05:38:08;;;;;;;3.95;1.92;;;13.50;93.30;;;;;;5012232;28;20771;-65
2023/05/31 05:40:34;;;;;;;4.28;1.83;;;13.60;93.10;;;;;;5001471;28;20014;-66
2023/05/31 05:43:00;;;;;;;7.93;1.85;;;13.70;93.00;;;;;;4985575;28;20025;-65
2023/05/31 05:45:27;;;;;;;3.90;1.70;;;13.70;92.70;;;;;;4999584;28;20045;-65
2023/05/31 05:47:55;;;;;;;3.55;1.65;;;13.80;93.00;;;;;;4997749;28;20029;-65
2023/05/31 05:50:21;;;;;;;4.30;1.60;;;14.00;92.90;;;;;;5016647;28;20484;-64
2023/05/31 05:52:48;;;;;;;3.20;1.33;;;14.50;93.00;;;;;;4999863;28;20075;-65
2023/05/31 05:55:14;;;;;;;4.13;1.60;;;15.20;91.20;;;;;;5001251;28;20404;-64
2023/05/31 05:57:40;;;;;;;1.85;1.50;;;15.90;90.00;;;;;;5018246;28;20041;-65
2023/05/31 06:00:48;;;;;;;1.95;1.25;;;16.40;86.20;;;;;;4993956;28;20120;-65
2023/05/31 06:03:14;;;;;;;2.60;1.42;;;16.60;85.60;;;;;;4999031;28;20054;-64
2023/05/31 06:05:42;;;;;;;4.43;1.65;;;16.50;84.50;;;;;;5000182;28;20025;-64
2023/05/31 06:08:11;;;;;;;2.90;1.50;;;16.40;83.50;;;;;;5000293;28;20044;-64
2023/05/31 06:10:37;;;;;;;2.28;1.83;;;16.40;84.50;;;;;;5016151;28;20108;-64
2023/05/31 06:13:05;;;;;;;4.35;1.60;;;16.40;86.00;;;;;;4997098;28;20033;-64
2023/05/31 06:15:33;;;;;;;3.88;1.52;;;16.30;84.80;;;;;;4997598;28;20113;-63
2023/05/31 06:18:00;;;;;;;4.03;1.73;;;16.30;86.10;;;;;;4996356;28;20041;-64
2023/05/31 06:20:26;;;;;;;3.40;1.65;;;16.40;86.40;;;;;;5002371;28;20383;-64
2023/05/31 06:22:53;;;;;;;4.60;1.77;;;16.40;85.50;;;;;;5016667;28;20381;-63
2023/05/31 06:25:22;;;;;;;5.13;1.70;;;16.40;84.90;;;;;;5001080;28;20085;-64
2023/05/31 06:27:48;;;;;;;3.80;1.50;;;16.40;85.80;;;;;;4999535;28;20278;-64
2023/05/31 06:30:15;;;;;;;3.20;1.30;;;16.50;85.20;;;;;;4998153;28;20075;-63
2023/05/31 06:32:45;;;;;;;3.72;1.35;;;16.60;85.90;;;;;;5025156;28;20183;-64
2023/05/31 06:35:17;;;;;;;5.03;1.63;;;16.60;85.30;;;;;;5004937;28;20148;-64
2023/05/31 06:37:44;;;;;;;1.92;1.35;;;16.60;84.20;;;;;;5020399;28;20037;-64
2023/05/31 06:40:10;;;;;;;4.30;1.77;;;16.60;83.60;;;;;;4998803;28;20521;-64
2023/05/31 06:42:38;;;;;;;1.95;1.23;;;16.60;82.80;;;;;;5016291;28;20423;-64
2023/05/31 06:45:27;;;;;;;4.18;1.30;;;16.70;83.80;;;;;;5022968;28;20026;-64
2023/05/31 06:47:53;;;;;;;3.05;1.30;;;16.80;83.60;;;;;;5022520;28;20040;-64
2023/05/31 06:50:21;;;;;;;3.92;1.58;;;16.90;83.80;;;;;;5020095;28;20072;-64
2023/05/31 06:53:09;;;;;;;9.05;2.15;;;16.90;82.90;;;;;;5016284;28;20808;-64
2023/05/31 06:55:41;;;;;;;4.55;1.60;;;17.00;81.70;;;;;;5018716;28;20063;-64
2023/05/31 06:58:10;;;;;;;3.78;1.48;;;17.10;80.70;;;;;;5005177;28;20038;-64
2023/05/31 07:00:39;;;;;;;3.33;1.58;;;17.10;81.20;;;;;;5023565;28;20029;-64
2023/05/31 07:03:05;;;;;;;3.25;1.30;;;17.20;81.00;;;;;;5001365;28;20040;-64
2023/05/31 07:05:32;;;;;;;3.08;1.23;;;17.30;80.20;;;;;;4985562;28;20643;-64
2023/05/31 07:07:58;;;;;;;5.55;1.58;;;17.40;79.80;;;;;;4998047;28;20029;-64
2023/05/31 07:10:24;;;;;;;5.45;1.83;;;17.40;79.70;;;;;;5005634;28;20048;-64
2023/05/31 07:12:51;;;;;;;2.85;1.48;;;17.50;79.40;;;;;;5007612;28;20047;-64
2023/05/31 07:15:17;;;;;;;3.58;1.50;;;17.60;79.30;;;;;;5001703;28;20195;-64
2023/05/31 07:17:43;;;;;;;5.53;1.40;;;17.70;78.80;;;;;;5018256;28;20033;-64
2023/05/31 07:20:10;;;;;;;4.85;1.58;;;17.80;77.60;;;;;;4996959;28;20026;-63
2023/05/31 07:22:36;;;;;;;3.88;1.50;;;17.80;77.70;;;;;;5020821;28;20040;-64
2023/05/31 07:25:03;;;;;;;6.85;2.00;;;17.90;77.70;;;;;;5022638;28;20052;-64
2023/05/31 07:27:32;;;;;;;3.28;1.63;;;18.00;77.10;;;;;;5020074;28;20033;-64
2023/05/31 07:29:58;;;;;;;3.00;1.73;;;18.10;77.20;;;;;;5019850;28;20030;-64
2023/05/31 07:32:24;;;;;;;5.20;1.73;;;18.20;77.50;;;;;;5018181;28;20030;-64
2023/05/31 07:34:49;;;;;;;3.15;1.52;;;18.20;77.40;;;;;;5017505;28;20064;-64
2023/05/31 07:37:15;;;;;;;3.75;1.75;;;18.30;76.60;;;;;;5021911;28;20111;-64
2023/05/31 07:39:41;;;;;;;5.38;1.75;;;18.40;77.00;;;;;;5021566;28;20033;-64
2023/05/31 07:42:07;;;;;;;13.10;2.05;;;18.50;77.00;;;;;;5018123;28;20032;-65
2023/05/31 07:44:33;;;;;;;4.43;1.55;;;18.60;77.30;;;;;;5018604;28;20022;-65
2023/05/31 07:46:59;;;;;;;2.70;1.42;;;18.70;76.70;;;;;;5007481;28;20025;-65
2023/05/31 07:49:25;;;;;;;5.15;1.58;;;18.80;76.50;;;;;;5022445;28;20037;-64
2023/05/31 07:51:52;;;;;;;4.20;1.60;;;18.90;76.70;;;;;;5021950;28;20030;-64
2023/05/31 07:54:17;;;;;;;3.83;1.73;;;19.00;77.90;;;;;;5000019;28;20120;-65
2023/05/31 07:56:43;;;;;;;4.90;1.45;;;19.10;76.70;;;;;;5019392;28;20124;-64
2023/05/31 07:59:09;;;;;;;6.63;1.90;;;19.30;75.60;;;;;;5013451;28;20030;-64
2023/05/31 08:01:35;;;;;;;4.75;1.80;;;19.30;74.80;;;;;;5023750;28;20031;-64
2023/05/31 08:04:11;;;;;;;6.13;1.90;;;19.40;75.10;;;;;;5003313;28;20018;-64
2023/05/31 08:06:37;;;;;;;4.90;1.77;;;19.50;74.30;;;;;;5018677;28;20118;-64
2023/05/31 08:09:07;;;;;;;4.78;1.42;;;19.70;72.30;;;;;;5018641;28;20029;-65
2023/05/31 08:11:35;;;;;;;4.28;1.60;;;19.70;72.60;;;;;;5018794;28;20422;-64
2023/05/31 08:14:05;;;;;;;2.40;1.50;;;19.90;71.00;;;;;;5018682;28;20059;-65
2023/05/31 08:16:32;;;;;;;4.38;1.35;;;20.00;69.50;;;;;;5021614;28;20053;-64
2023/05/31 08:18:58;;;;;;;3.92;1.40;;;20.10;68.80;;;;;;5019305;28;20029;-64
2023/05/31 08:21:24;;;;;;;2.53;1.48;;;20.10;67.10;;;;;;5004685;28;20698;-61
2023/05/31 08:23:50;;;;;;;6.07;2.70;;;20.30;66.20;;;;;;5016013;28;20041;-62
2023/05/31 08:26:16;;;;;;;11.88;1.70;;;20.40;66.90;;;;;;5017166;28;20112;-63
2023/05/31 08:28:42;;;;;;;3.63;1.83;;;20.50;66.40;;;;;;5021820;28;20049;-57
2023/05/31 08:31:08;;;;;;;4.47;2.80;;;20.60;65.90;;;;;;5018920;28;20536;-59
2023/05/31 08:33:34;;;;;;;3.08;1.30;;;20.60;66.10;;;;;;5015783;28;20032;-60
2023/05/31 08:36:03;;;;;;;4.22;1.50;;;20.70;61.70;;;;;;5014757;28;20063;-60
2023/05/31 08:38:30;;;;;;;3.13;1.85;;;20.80;61.80;;;;;;5017975;28;20061;-60
2023/05/31 08:41:02;;;;;;;5.45;1.40;;;20.90;63.60;;;;;;5022111;28;20029;-58
2023/05/31 08:43:28;;;;;;;3.67;1.40;;;21.00;60.80;;;;;;5017647;28;20065;-61
2023/05/31 08:45:58;;;;;;;2.08;1.40;;;21.10;58.50;;;;;;5018219;28;20814;-60
2023/05/31 08:48:44;;;;;;;4.18;1.45;;;21.10;60.60;;;;;;5014549;28;20112;-59
2023/05/31 08:51:11;;;;;;;2.85;1.20;;;21.30;60.60;;;;;;5014947;28;20823;-61
2023/05/31 08:53:38;;;;;;;3.50;1.30;;;21.40;60.70;;;;;;5021387;28;20037;-61
2023/05/31 08:56:05;;;;;;;2.03;1.13;;;21.60;59.60;;;;;;5018964;28;20091;-61
2023/05/31 08:58:31;;;;;;;2.95;1.27;;;21.60;59.30;;;;;;5017406;28;20032;-61
2023/05/31 09:00:57;;;;;;;2.78;1.05;;;21.70;56.70;;;;;;5015814;28;20500;-60
2023/05/31 09:03:23;;;;;;;3.05;0.88;;;21.80;55.20;;;;;;5014280;28;20080;-60
2023/05/31 09:05:49;;;;;;;3.38;1.30;;;21.80;56.80;;;;;;5022110;28;20167;-60
2023/05/31 09:08:15;;;;;;;4.45;1.58;;;21.80;56.70;;;;;;5016357;28;20041;-60
2023/05/31 09:10:41;;;;;;;2.03;1.10;;;21.90;56.30;;;;;;5019449;28;20108;-60
2023/05/31 09:13:08;;;;;;;5.55;1.88;;;21.90;54.50;;;;;;5013278;28;20526;-60
2023/05/31 09:15:36;;;;;;;5.35;3.95;;;22.00;54.90;;;;;;5013078;28;20045;-60
2023/05/31 09:18:14;;;;;;;6.35;3.15;;;22.00;55.00;;;;;;5018254;28;20048;-60
2023/05/31 09:20:40;;;;;;;7.78;2.33;;;22.10;55.20;;;;;;5016071;28;20029;-61
2023/05/31 09:23:07;;;;;;;7.65;2.72;;;22.10;54.10;;;;;;5017750;28;20107;-61
2023/05/31 09:25:52;;;;;;;4.88;1.60;;;22.10;54.70;;;;;;5016345;28;20082;-60
2023/05/31 09:28:20;;;;;;;4.57;2.00;;;22.10;54.20;;;;;;5013481;28;20108;-60
2023/05/31 09:30:45;;;;;;;4.20;2.28;;;22.10;54.60;;;;;;5019038;28;20393;-60
2023/05/31 09:33:13;;;;;;;10.18;2.22;;;22.20;54.40;;;;;;5019794;28;20029;-60
2023/05/31 09:35:56;;;;;;;6.38;1.83;;;22.20;53.90;;;;;;5018928;28;20516;-60
2023/05/31 09:38:33;;;;;;;3.72;1.80;;;22.30;53.80;;;;;;5015947;28;20038;-60
2023/05/31 09:41:22;;;;;;;2.42;1.10;;;22.30;53.60;;;;;;5015999;28;20050;-60
2023/05/31 09:43:50;;;;;;;2.30;1.15;;;22.30;53.10;;;;;;5020021;28;20041;-60
2023/05/31 09:46:17;;;;;;;2.30;1.15;;;22.30;53.10;;;;;;5018956;28;20481;-63
2023/05/31 09:49:00;;;;;;;3.53;1.38;;;22.40;52.70;;;;;;5018272;28;20833;-60
2023/05/31 09:51:27;;;;;;;3.55;1.35;;;22.40;52.30;;;;;;5016064;28;20080;-60
2023/05/31 09:53:55;;;;;;;2.92;1.23;;;22.50;53.10;;;;;;5014114;28;20036;-60
2023/05/31 09:56:23;;;;;;;2.50;1.23;;;22.60;52.40;;;;;;5001692;28;20037;-60
2023/05/31 09:58:50;;;;;;;4.57;1.50;;;22.50;50.30;;;;;;5004420;28;20037;-60
2023/05/31 10:01:17;;;;;;;5.30;1.48;;;22.60;51.10;;;;;;5021340;28;20600;-60
2023/05/31 10:03:44;;;;;;;3.28;1.23;;;22.70;49.10;;;;;;5016963;28;20575;-60
2023/05/31 10:06:11;;;;;;;1.83;1.25;;;23.00;50.80;;;;;;5012696;28;20076;-60
2023/05/31 10:08:37;;;;;;;2.05;1.35;;;22.90;50.30;;;;;;5018401;28;20091;-60
2023/05/31 10:11:03;;;;;;;3.35;1.40;;;23.00;50.50;;;;;;5019669;28;20049;-60
2023/05/31 10:13:30;;;;;;;6.63;2.30;;;23.10;50.10;;;;;;5018154;28;20033;-58
2023/05/31 10:16:07;;;;;;;3.05;1.30;;;23.10;50.50;;;;;;5015941;28;20091;-60
2023/05/31 10:18:38;;;;;;;4.88;1.13;;;23.00;50.40;;;;;;5013753;28;20044;-61
2023/05/31 10:21:10;;;;;;;4.22;1.13;;;23.10;50.30;;;;;;5014764;28;20124;-62
2023/05/31 10:23:44;;;;;;;3.17;1.30;;;23.10;48.20;;;;;;5016711;28;20045;-61
2023/05/31 10:26:19;;;;;;;2.92;1.33;;;23.20;49.70;;;;;;5016303;28;20026;-61
2023/05/31 10:29:08;;;;;;;2.17;1.38;;;23.30;49.30;;;;;;5016683;28;20075;-61
2023/05/31 10:31:43;;;;;;;3.53;1.52;;;23.50;47.50;;;;;;5010854;28;20552;-61
2023/05/31 10:34:23;;;;;;;4.88;1.23;;;23.50;48.30;;;;;;4995384;28;20849;-61
2023/05/31 10:36:55;;;;;;;3.45;1.23;;;23.50;47.80;;;;;;5012715;28;20053;-61
2023/05/31 10:39:48;;;;;;;2.47;1.13;;;23.40;47.70;;;;;;5010176;28;20151;-60
2023/05/31 10:42:40;;;;;;;3.65;1.30;;;23.50;47.60;;;;;;5015389;28;20502;-61
2023/05/31 10:45:16;;;;;;;2.70;1.20;;;23.70;47.70;;;;;;5014557;28;20054;-61
2023/05/31 10:47:55;;;;;;;4.18;1.30;;;23.90;47.70;;;;;;5017242;28;20052;-61
2023/05/31 10:50:21;;;;;;;1.80;0.90;;;24.10;47.10;;;;;;5018535;28;20096;-57
2023/05/31 10:52:51;;;;;;;4.63;1.15;;;24.30;44.30;;;;;;5017762;28;20025;-59
2023/05/31 10:55:23;;;;;;;4.95;1.30;;;24.40;45.80;;;;;;5013126;28;20026;-58
2023/05/31 10:57:53;;;;;;;7.15;1.20;;;24.50;46.20;;;;;;5012357;28;20044;-60
2023/05/31 11:00:21;;;;;;;5.13;1.10;;;24.60;45.90;;;;;;5018618;28;20030;-60
2023/05/31 11:02:51;;;;;;;3.05;1.48;;;24.50;45.90;;;;;;5019143;28;20030;-61
2023/05/31 11:05:21;;;;;;;3.15;1.00;;;24.40;45.60;;;;;;5016119;28;20026;-58
2023/05/31 11:07:49;;;;;;;1.48;0.93;;;24.30;45.60;;;;;;5014640;28;20504;-59
2023/05/31 11:10:29;;;;;;;1.88;1.08;;;24.10;45.40;;;;;;4993741;28;20030;-60
2023/05/31 11:13:03;;;;;;;1.95;1.23;;;24.00;46.30;;;;;;5018458;28;20521;-60
2023/05/31 11:15:40;;;;;;;2.58;0.90;;;23.90;46.10;;;;;;5021941;28;20037;-60
2023/05/31 11:18:12;;;;;;;2.88;1.00;;;23.80;46.00;;;;;;5018864;28;20037;-59
2023/05/31 11:20:38;;;;;;;1.90;1.10;;;23.70;45.80;;;;;;5017624;28;20030;-58
2023/05/31 11:23:19;;;;;;;3.95;2.10;;;23.60;45.60;;;;;;5014470;28;20029;-59
2023/05/31 11:26:08;;;;;;;4.70;2.20;;;23.60;46.90;;;;;;5021302;28;20886;-59
2023/05/31 11:28:57;;;;;;;5.03;1.77;;;23.60;47.20;;;;;;5018688;28;20037;-59
2023/05/31 11:31:48;;;;;;;2.05;1.20;;;23.70;47.00;;;;;;5019023;28;20082;-55
2023/05/31 11:34:24;;;;;;;4.40;1.35;;;23.80;46.10;;;;;;5015947;28;20029;-59
2023/05/31 11:36:50;;;;;;;2.90;1.42;;;23.90;47.60;;;;;;5020713;28;20055;-60
2023/05/31 11:39:20;;;;;;;4.07;1.10;;;23.90;47.10;;;;;;5021793;28;20087;-58
2023/05/31 11:41:46;;;;;;;1.67;1.10;;;23.80;47.40;;;;;;5023226;28;20059;-59
2023/05/31 11:44:13;;;;;;;1.95;1.10;;;24.00;47.00;;;;;;5018124;28;20166;-59
2023/05/31 11:46:41;;;;;;;2.65;0.93;;;24.00;46.80;;;;;;5019162;28;20029;-59
2023/05/31 11:49:11;;;;;;;1.75;1.10;;;24.10;46.50;;;;;;5017507;28;20037;-58
2023/05/31 11:51:41;;;;;;;3.80;1.20;;;23.90;46.70;;;;;;5017446;28;20084;-59
2023/05/31 11:54:08;;;;;;;4.65;2.67;;;24.00;46.40;;;;;;5022583;28;20033;-59
2023/05/31 11:56:36;;;;;;;3.50;1.73;;;24.00;46.70;;;;;;5018985;28;20033;-60
2023/05/31 11:59:02;;;;;;;1.85;1.08;;;24.10;47.10;;;;;;5021998;28;20065;-59
2023/05/31 12:01:34;;;;;;;2.03;1.25;;;24.10;44.30;;;;;;5020436;28;20034;-59
2023/05/31 12:04:00;;;;;;;4.38;1.20;;;24.00;46.30;;;;;;5019182;28;20822;-59
2023/05/31 12:06:28;;;;;;;2.25;1.08;;;23.90;46.80;;;;;;5020873;28;20041;-61
2023/05/31 12:08:54;;;;;;;4.80;1.67;;;23.80;45.90;;;;;;5017219;28;20076;-60
2023/05/31 12:11:21;;;;;;;5.18;1.77;;;23.90;46.50;;;;;;5016131;28;20079;-59
2023/05/31 12:13:48;;;;;;;4.40;2.78;;;24.00;45.80;;;;;;5016541;28;20033;-60
2023/05/31 12:16:14;;;;;;;3.85;1.35;;;24.10;45.70;;;;;;5016535;28;20048;-58
2023/05/31 12:18:40;;;;;;;2.75;1.83;;;24.10;44.60;;;;;;5021022;28;20491;-61
2023/05/31 12:21:07;;;;;;;1.95;1.23;;;24.10;45.10;;;;;;5018912;28;20034;-59
2023/05/31 12:23:50;;;;;;;2.28;1.60;;;24.20;45.70;;;;;;5016103;28;20057;-59
2023/05/31 12:26:16;;;;;;;2.67;1.15;;;24.20;45.30;;;;;;5014270;28;20033;-59
2023/05/31 12:28:42;;;;;;;0.93;0.88;;;24.40;45.40;;;;;;5016125;28;20060;-60
2023/05/31 12:31:08;;;;;;;3.72;0.80;;;24.40;44.70;;;;;;5021123;28;20040;-60
2023/05/31 12:33:37;;;;;;;1.83;1.00;;;24.40;44.60;;;;;;5020386;28;20025;-60
2023/05/31 12:36:03;;;;;;;2.50;1.00;;;24.30;44.40;;;;;;5017575;28;20177;-60
2023/05/31 12:38:31;;;;;;;1.55;0.80;;;24.30;44.30;;;;;;5016811;28;20073;-60
2023/05/31 12:40:57;;;;;;;0.57;0.52;;;24.30;44.60;;;;;;5016487;28;20556;-59
2023/05/31 12:43:23;;;;;;;1.77;0.80;;;24.30;44.30;;;;;;5022050;28;20057;-61
2023/05/31 12:45:52;;;;;;;2.38;1.05;;;24.40;44.80;;;;;;5020291;28;20033;-60
2023/05/31 12:48:23;;;;;;;1.80;0.70;;;24.30;44.70;;;;;;4997351;28;20489;-60
2023/05/31 12:50:48;;;;;;;3.50;0.98;;;24.40;43.10;;;;;;5004660;28;20038;-60
2023/05/31 12:53:15;;;;;;;1.23;0.65;;;24.40;42.90;;;;;;5012910;28;20089;-60
2023/05/31 12:55:41;;;;;;;2.05;0.90;;;24.40;43.50;;;;;;5021905;28;20033;-62
2023/05/31 12:58:08;;;;;;;5.85;0.95;;;24.40;44.40;;;;;;5018693;28;20033;-62